sensor_id;sensor_type;location;lat;lon;timestamp;P1;durP1;ratioP1;P2;durP2;ratioP2
64957;SDS011;51486;50.232;19.208;2022-10-16T00:01:24;23.63;;;10.47;;
64957;SDS011;51486;50.232;19.208;2022-10-16T00:03:53;25.60;;;10.90;;
64957;SDS011;51486;50.232;19.208;2022-10-16T00:06:20;25.00;;;11.67;;
64957;SDS011;51486;50.232;19.208;2022-10-16T00:08:46;23.83;;;10.40;;
64957;SDS011;51486;50.232;19.208;2022-10-16T00:11:17;19.30;;;9.70;;
64957;SDS011;51486;50.232;19.208;2022-10-16T00:13:44;19.93;;;11.00;;
64957;SDS011;51486;50.232;19.208;2022-10-16T00:16:12;16.63;;;9.33;;
64957;SDS011;51486;50.232;19.208;2022-10-16T00:18:37;18.50;;;8.83;;
64957;SDS011;51486;50.232;19.208;2022-10-16T00:21:07;19.17;;;9.07;;
64957;SDS011;51486;50.232;19.208;2022-10-16T00:23:35;20.03;;;9.77;;
64957;SDS011;51486;50.232;19.208;2022-10-16T00:26:02;32.70;;;10.73;;
64957;SDS011;51486;50.232;19.208;2022-10-16T00:28:31;27.17;;;10.50;;
64957;SDS011;51486;50.232;19.208;2022-10-16T00:30:57;17.87;;;10.07;;
64957;SDS011;51486;50.232;19.208;2022-10-16T00:33:22;23.50;;;10.43;;
64957;SDS011;51486;50.232;19.208;2022-10-16T00:35:48;19.10;;;9.63;;
64957;SDS011;51486;50.232;19.208;2022-10-16T00:38:13;22.17;;;10.37;;
64957;SDS011;51486;50.232;19.208;2022-10-16T00:40:40;32.67;;;12.57;;
64957;SDS011;51486;50.232;19.208;2022-10-16T00:45:50;28.93;;;12.57;;
64957;SDS011;51486;50.232;19.208;2022-10-16T00:48:16;29.00;;;12.90;;
64957;SDS011;51486;50.232;19.208;2022-10-16T00:50:41;27.00;;;12.90;;
64957;SDS011;51486;50.232;19.208;2022-10-16T00:53:08;30.10;;;12.93;;
64957;SDS011;51486;50.232;19.208;2022-10-16T00:55:35;23.87;;;11.43;;
64957;SDS011;51486;50.232;19.208;2022-10-16T00:58:01;32.30;;;14.57;;
64957;SDS011;51486;50.232;19.208;2022-10-16T01:00:27;28.93;;;11.87;;
64957;SDS011;51486;50.232;19.208;2022-10-16T01:02:53;25.80;;;13.10;;
64957;SDS011;51486;50.232;19.208;2022-10-16T01:05:21;29.27;;;12.53;;
64957;SDS011;51486;50.232;19.208;2022-10-16T01:15:22;26.50;;;11.90;;
64957;SDS011;51486;50.232;19.208;2022-10-16T01:18:00;19.30;;;10.17;;
64957;SDS011;51486;50.232;19.208;2022-10-16T01:23:03;21.47;;;10.27;;
64957;SDS011;51486;50.232;19.208;2022-10-16T01:25:36;27.00;;;12.17;;
64957;SDS011;51486;50.232;19.208;2022-10-16T01:28:03;22.80;;;11.63;;
64957;SDS011;51486;50.232;19.208;2022-10-16T01:30:32;23.13;;;11.00;;
64957;SDS011;51486;50.232;19.208;2022-10-16T01:33:02;18.53;;;9.77;;
64957;SDS011;51486;50.232;19.208;2022-10-16T01:35:35;23.47;;;11.23;;
64957;SDS011;51486;50.232;19.208;2022-10-16T01:38:17;26.17;;;10.93;;
64957;SDS011;51486;50.232;19.208;2022-10-16T01:40:45;31.90;;;12.80;;
64957;SDS011;51486;50.232;19.208;2022-10-16T01:43:17;22.20;;;10.97;;
64957;SDS011;51486;50.232;19.208;2022-10-16T01:45:44;19.63;;;9.93;;
64957;SDS011;51486;50.232;19.208;2022-10-16T01:48:11;23.00;;;9.90;;
64957;SDS011;51486;50.232;19.208;2022-10-16T01:50:38;25.20;;;11.07;;
64957;SDS011;51486;50.232;19.208;2022-10-16T01:53:05;29.87;;;11.87;;
64957;SDS011;51486;50.232;19.208;2022-10-16T01:55:32;21.33;;;10.63;;
64957;SDS011;51486;50.232;19.208;2022-10-16T01:57:59;20.93;;;9.47;;
64957;SDS011;51486;50.232;19.208;2022-10-16T02:00:26;21.20;;;8.73;;
64957;SDS011;51486;50.232;19.208;2022-10-16T02:02:52;19.73;;;9.23;;
64957;SDS011;51486;50.232;19.208;2022-10-16T02:05:24;15.47;;;7.83;;
64957;SDS011;51486;50.232;19.208;2022-10-16T02:07:51;20.30;;;8.40;;
64957;SDS011;51486;50.232;19.208;2022-10-16T02:10:16;31.20;;;10.77;;
64957;SDS011;51486;50.232;19.208;2022-10-16T02:12:44;17.27;;;8.77;;
64957;SDS011;51486;50.232;19.208;2022-10-16T02:15:11;20.83;;;9.83;;
64957;SDS011;51486;50.232;19.208;2022-10-16T02:17:36;30.03;;;11.33;;
64957;SDS011;51486;50.232;19.208;2022-10-16T02:20:01;20.93;;;10.40;;
64957;SDS011;51486;50.232;19.208;2022-10-16T02:22:28;22.17;;;10.23;;
64957;SDS011;51486;50.232;19.208;2022-10-16T02:24:58;21.40;;;10.00;;
64957;SDS011;51486;50.232;19.208;2022-10-16T02:30:10;25.63;;;10.70;;
64957;SDS011;51486;50.232;19.208;2022-10-16T02:32:39;35.10;;;12.43;;
64957;SDS011;51486;50.232;19.208;2022-10-16T02:35:07;30.93;;;12.20;;
64957;SDS011;51486;50.232;19.208;2022-10-16T02:37:33;21.73;;;9.83;;
64957;SDS011;51486;50.232;19.208;2022-10-16T02:39:59;19.23;;;10.50;;
64957;SDS011;51486;50.232;19.208;2022-10-16T02:42:27;20.27;;;10.57;;
64957;SDS011;51486;50.232;19.208;2022-10-16T02:44:53;25.90;;;10.63;;
64957;SDS011;51486;50.232;19.208;2022-10-16T02:47:18;24.33;;;8.90;;
64957;SDS011;51486;50.232;19.208;2022-10-16T02:49:44;17.60;;;9.57;;
64957;SDS011;51486;50.232;19.208;2022-10-16T02:52:10;18.03;;;8.80;;
64957;SDS011;51486;50.232;19.208;2022-10-16T02:54:36;18.90;;;8.70;;
64957;SDS011;51486;50.232;19.208;2022-10-16T02:57:02;18.10;;;8.83;;
64957;SDS011;51486;50.232;19.208;2022-10-16T02:59:27;18.10;;;9.57;;
64957;SDS011;51486;50.232;19.208;2022-10-16T03:01:53;19.33;;;10.23;;
64957;SDS011;51486;50.232;19.208;2022-10-16T03:04:19;26.40;;;11.17;;
64957;SDS011;51486;50.232;19.208;2022-10-16T03:06:45;21.80;;;10.77;;
64957;SDS011;51486;50.232;19.208;2022-10-16T03:09:10;21.77;;;9.83;;
64957;SDS011;51486;50.232;19.208;2022-10-16T03:11:35;21.00;;;9.77;;
64957;SDS011;51486;50.232;19.208;2022-10-16T03:14:01;19.03;;;10.77;;
64957;SDS011;51486;50.232;19.208;2022-10-16T03:16:26;18.97;;;9.33;;
64957;SDS011;51486;50.232;19.208;2022-10-16T03:18:52;26.20;;;10.43;;
64957;SDS011;51486;50.232;19.208;2022-10-16T03:21:17;24.73;;;10.00;;
64957;SDS011;51486;50.232;19.208;2022-10-16T03:23:42;21.90;;;10.33;;
64957;SDS011;51486;50.232;19.208;2022-10-16T03:26:09;21.13;;;10.47;;
64957;SDS011;51486;50.232;19.208;2022-10-16T03:28:35;18.67;;;10.03;;
64957;SDS011;51486;50.232;19.208;2022-10-16T03:31:01;20.60;;;10.57;;
64957;SDS011;51486;50.232;19.208;2022-10-16T03:33:26;21.87;;;10.53;;
64957;SDS011;51486;50.232;19.208;2022-10-16T03:35:52;23.83;;;10.03;;
64957;SDS011;51486;50.232;19.208;2022-10-16T03:38:19;23.50;;;11.33;;
64957;SDS011;51486;50.232;19.208;2022-10-16T03:40:45;25.67;;;10.83;;
64957;SDS011;51486;50.232;19.208;2022-10-16T03:43:10;22.97;;;10.90;;
64957;SDS011;51486;50.232;19.208;2022-10-16T03:45:36;22.63;;;10.37;;
64957;SDS011;51486;50.232;19.208;2022-10-16T03:48:01;27.97;;;10.90;;
64957;SDS011;51486;50.232;19.208;2022-10-16T03:50:28;16.60;;;9.27;;
64957;SDS011;51486;50.232;19.208;2022-10-16T03:52:53;26.90;;;11.67;;
64957;SDS011;51486;50.232;19.208;2022-10-16T03:55:19;26.30;;;11.67;;
64957;SDS011;51486;50.232;19.208;2022-10-16T03:57:44;24.47;;;13.17;;
64957;SDS011;51486;50.232;19.208;2022-10-16T04:00:10;25.87;;;12.43;;
64957;SDS011;51486;50.232;19.208;2022-10-16T04:02:35;27.10;;;11.93;;
64957;SDS011;51486;50.232;19.208;2022-10-16T04:05:01;25.73;;;11.60;;
64957;SDS011;51486;50.232;19.208;2022-10-16T04:07:26;21.83;;;9.30;;
64957;SDS011;51486;50.232;19.208;2022-10-16T04:09:52;21.50;;;10.83;;
64957;SDS011;51486;50.232;19.208;2022-10-16T04:12:17;23.07;;;11.23;;
64957;SDS011;51486;50.232;19.208;2022-10-16T04:14:42;15.43;;;8.80;;
64957;SDS011;51486;50.232;19.208;2022-10-16T04:17:08;21.30;;;9.07;;
64957;SDS011;51486;50.232;19.208;2022-10-16T04:19:34;18.77;;;9.93;;
64957;SDS011;51486;50.232;19.208;2022-10-16T04:21:59;31.23;;;10.43;;
64957;SDS011;51486;50.232;19.208;2022-10-16T04:24:24;20.33;;;9.83;;
64957;SDS011;51486;50.232;19.208;2022-10-16T04:26:50;23.40;;;11.47;;
64957;SDS011;51486;50.232;19.208;2022-10-16T04:29:15;26.63;;;12.53;;
64957;SDS011;51486;50.232;19.208;2022-10-16T04:31:41;23.73;;;12.53;;
64957;SDS011;51486;50.232;19.208;2022-10-16T04:34:06;37.73;;;16.13;;
64957;SDS011;51486;50.232;19.208;2022-10-16T04:36:32;46.97;;;16.47;;
64957;SDS011;51486;50.232;19.208;2022-10-16T04:38:57;61.30;;;24.27;;
64957;SDS011;51486;50.232;19.208;2022-10-16T04:41:23;59.77;;;24.10;;
64957;SDS011;51486;50.232;19.208;2022-10-16T04:43:49;83.37;;;35.03;;
64957;SDS011;51486;50.232;19.208;2022-10-16T04:46:15;90.10;;;35.50;;
64957;SDS011;51486;50.232;19.208;2022-10-16T04:48:42;75.23;;;30.93;;
64957;SDS011;51486;50.232;19.208;2022-10-16T04:51:08;81.30;;;33.13;;
64957;SDS011;51486;50.232;19.208;2022-10-16T04:53:34;104.10;;;39.87;;
64957;SDS011;51486;50.232;19.208;2022-10-16T04:56:00;96.87;;;36.77;;
64957;SDS011;51486;50.232;19.208;2022-10-16T04:58:25;83.97;;;32.57;;
64957;SDS011;51486;50.232;19.208;2022-10-16T05:00:51;74.73;;;30.23;;
64957;SDS011;51486;50.232;19.208;2022-10-16T05:03:16;81.13;;;30.40;;
64957;SDS011;51486;50.232;19.208;2022-10-16T05:05:42;62.40;;;24.47;;
64957;SDS011;51486;50.232;19.208;2022-10-16T05:08:09;46.87;;;19.77;;
64957;SDS011;51486;50.232;19.208;2022-10-16T05:10:34;33.20;;;14.70;;
64957;SDS011;51486;50.232;19.208;2022-10-16T05:12:59;35.17;;;14.50;;
64957;SDS011;51486;50.232;19.208;2022-10-16T05:15:26;31.60;;;13.70;;
64957;SDS011;51486;50.232;19.208;2022-10-16T05:17:52;28.13;;;11.30;;
64957;SDS011;51486;50.232;19.208;2022-10-16T05:20:17;20.13;;;10.03;;
64957;SDS011;51486;50.232;19.208;2022-10-16T05:22:43;20.80;;;10.40;;
64957;SDS011;51486;50.232;19.208;2022-10-16T05:25:09;24.10;;;10.57;;
64957;SDS011;51486;50.232;19.208;2022-10-16T05:27:34;18.23;;;8.73;;
64957;SDS011;51486;50.232;19.208;2022-10-16T05:29:59;16.43;;;9.63;;
64957;SDS011;51486;50.232;19.208;2022-10-16T05:32:25;18.80;;;9.13;;
64957;SDS011;51486;50.232;19.208;2022-10-16T05:34:50;19.37;;;10.03;;
64957;SDS011;51486;50.232;19.208;2022-10-16T05:37:16;15.90;;;8.57;;
64957;SDS011;51486;50.232;19.208;2022-10-16T05:39:41;18.10;;;8.97;;
64957;SDS011;51486;50.232;19.208;2022-10-16T05:42:07;16.47;;;8.10;;
64957;SDS011;51486;50.232;19.208;2022-10-16T05:44:32;17.27;;;9.03;;
64957;SDS011;51486;50.232;19.208;2022-10-16T05:46:58;24.80;;;9.50;;
64957;SDS011;51486;50.232;19.208;2022-10-16T05:49:23;18.33;;;10.07;;
64957;SDS011;51486;50.232;19.208;2022-10-16T05:51:49;20.60;;;9.83;;
64957;SDS011;51486;50.232;19.208;2022-10-16T05:54:14;17.50;;;8.57;;
64957;SDS011;51486;50.232;19.208;2022-10-16T05:56:41;16.90;;;7.93;;
64957;SDS011;51486;50.232;19.208;2022-10-16T05:59:06;17.30;;;8.17;;
64957;SDS011;51486;50.232;19.208;2022-10-16T06:01:32;12.53;;;7.83;;
64957;SDS011;51486;50.232;19.208;2022-10-16T06:03:57;24.20;;;9.90;;
64957;SDS011;51486;50.232;19.208;2022-10-16T06:06:24;17.00;;;8.63;;
64957;SDS011;51486;50.232;19.208;2022-10-16T06:08:51;18.70;;;8.27;;
64957;SDS011;51486;50.232;19.208;2022-10-16T06:11:19;27.90;;;8.73;;
64957;SDS011;51486;50.232;19.208;2022-10-16T06:13:45;15.83;;;8.87;;
64957;SDS011;51486;50.232;19.208;2022-10-16T06:16:14;16.70;;;8.87;;
64957;SDS011;51486;50.232;19.208;2022-10-16T06:18:39;25.00;;;10.67;;
64957;SDS011;51486;50.232;19.208;2022-10-16T06:21:12;18.27;;;10.33;;
64957;SDS011;51486;50.232;19.208;2022-10-16T06:23:39;21.87;;;10.13;;
64957;SDS011;51486;50.232;19.208;2022-10-16T06:26:11;24.00;;;10.03;;
64957;SDS011;51486;50.232;19.208;2022-10-16T06:28:36;21.47;;;10.27;;
64957;SDS011;51486;50.232;19.208;2022-10-16T06:31:03;19.60;;;9.37;;
64957;SDS011;51486;50.232;19.208;2022-10-16T06:33:30;23.23;;;9.77;;
64957;SDS011;51486;50.232;19.208;2022-10-16T06:36:02;16.13;;;8.40;;
64957;SDS011;51486;50.232;19.208;2022-10-16T06:38:28;18.60;;;8.17;;
64957;SDS011;51486;50.232;19.208;2022-10-16T06:40:54;23.10;;;8.27;;
64957;SDS011;51486;50.232;19.208;2022-10-16T06:43:19;14.17;;;7.90;;
64957;SDS011;51486;50.232;19.208;2022-10-16T06:45:54;21.17;;;7.97;;
64957;SDS011;51486;50.232;19.208;2022-10-16T06:48:20;15.80;;;8.43;;
64957;SDS011;51486;50.232;19.208;2022-10-16T06:50:59;13.83;;;7.83;;
64957;SDS011;51486;50.232;19.208;2022-10-16T06:53:27;16.70;;;8.03;;
64957;SDS011;51486;50.232;19.208;2022-10-16T06:55:52;18.63;;;8.10;;
64957;SDS011;51486;50.232;19.208;2022-10-16T06:58:19;14.20;;;7.53;;
64957;SDS011;51486;50.232;19.208;2022-10-16T07:00:45;20.77;;;8.33;;
64957;SDS011;51486;50.232;19.208;2022-10-16T07:03:10;15.33;;;9.00;;
64957;SDS011;51486;50.232;19.208;2022-10-16T07:05:39;24.40;;;10.40;;
64957;SDS011;51486;50.232;19.208;2022-10-16T07:08:05;28.03;;;12.60;;
64957;SDS011;51486;50.232;19.208;2022-10-16T07:10:31;23.33;;;10.90;;
64957;SDS011;51486;50.232;19.208;2022-10-16T07:12:57;27.90;;;10.07;;
64957;SDS011;51486;50.232;19.208;2022-10-16T07:15:22;21.47;;;9.60;;
64957;SDS011;51486;50.232;19.208;2022-10-16T07:17:47;19.43;;;9.77;;
64957;SDS011;51486;50.232;19.208;2022-10-16T07:20:13;17.30;;;8.53;;
64957;SDS011;51486;50.232;19.208;2022-10-16T07:22:38;17.80;;;7.53;;
64957;SDS011;51486;50.232;19.208;2022-10-16T07:25:05;16.53;;;7.83;;
64957;SDS011;51486;50.232;19.208;2022-10-16T07:27:30;17.33;;;8.40;;
64957;SDS011;51486;50.232;19.208;2022-10-16T07:29:56;14.47;;;7.37;;
64957;SDS011;51486;50.232;19.208;2022-10-16T07:32:21;11.90;;;6.57;;
64957;SDS011;51486;50.232;19.208;2022-10-16T07:34:47;13.57;;;5.80;;
64957;SDS011;51486;50.232;19.208;2022-10-16T07:37:12;9.90;;;5.00;;
64957;SDS011;51486;50.232;19.208;2022-10-16T07:39:37;11.33;;;4.87;;
64957;SDS011;51486;50.232;19.208;2022-10-16T07:42:03;11.30;;;5.37;;
64957;SDS011;51486;50.232;19.208;2022-10-16T07:44:28;11.30;;;5.33;;
64957;SDS011;51486;50.232;19.208;2022-10-16T07:46:56;9.27;;;5.17;;
64957;SDS011;51486;50.232;19.208;2022-10-16T07:49:22;11.13;;;5.20;;
64957;SDS011;51486;50.232;19.208;2022-10-16T07:51:48;8.63;;;4.80;;
64957;SDS011;51486;50.232;19.208;2022-10-16T07:54:13;17.80;;;4.60;;
64957;SDS011;51486;50.232;19.208;2022-10-16T07:56:38;7.73;;;4.07;;
64957;SDS011;51486;50.232;19.208;2022-10-16T07:59:04;9.33;;;4.77;;
64957;SDS011;51486;50.232;19.208;2022-10-16T08:01:30;9.33;;;4.50;;
64957;SDS011;51486;50.232;19.208;2022-10-16T08:03:55;11.07;;;5.30;;
64957;SDS011;51486;50.232;19.208;2022-10-16T08:06:21;7.57;;;4.23;;
64957;SDS011;51486;50.232;19.208;2022-10-16T08:08:47;10.33;;;4.30;;
64957;SDS011;51486;50.232;19.208;2022-10-16T08:11:12;5.47;;;3.90;;
64957;SDS011;51486;50.232;19.208;2022-10-16T08:13:39;13.23;;;5.17;;
64957;SDS011;51486;50.232;19.208;2022-10-16T08:16:04;6.57;;;3.63;;
64957;SDS011;51486;50.232;19.208;2022-10-16T08:18:37;14.33;;;5.67;;
64957;SDS011;51486;50.232;19.208;2022-10-16T08:21:03;14.67;;;4.87;;
64957;SDS011;51486;50.232;19.208;2022-10-16T08:23:29;10.93;;;5.53;;
64957;SDS011;51486;50.232;19.208;2022-10-16T08:25:55;7.80;;;4.40;;
64957;SDS011;51486;50.232;19.208;2022-10-16T08:28:21;8.33;;;4.57;;
64957;SDS011;51486;50.232;19.208;2022-10-16T08:30:47;9.07;;;4.67;;
64957;SDS011;51486;50.232;19.208;2022-10-16T08:33:12;8.20;;;4.47;;
64957;SDS011;51486;50.232;19.208;2022-10-16T08:35:38;10.83;;;3.77;;
64957;SDS011;51486;50.232;19.208;2022-10-16T08:38:04;7.80;;;4.37;;
64957;SDS011;51486;50.232;19.208;2022-10-16T08:40:29;6.73;;;3.33;;
64957;SDS011;51486;50.232;19.208;2022-10-16T08:50:27;6.87;;;3.97;;
64957;SDS011;51486;50.232;19.208;2022-10-16T08:52:53;7.15;;;3.22;;
64957;SDS011;51486;50.232;19.208;2022-10-16T08:55:30;8.05;;;2.63;;
64957;SDS011;51486;50.232;19.208;2022-10-16T08:57:57;4.70;;;2.88;;
64957;SDS011;51486;50.232;19.208;2022-10-16T09:00:22;9.43;;;3.80;;
64957;SDS011;51486;50.232;19.208;2022-10-16T09:02:50;11.27;;;3.63;;
64957;SDS011;51486;50.232;19.208;2022-10-16T09:10:30;8.53;;;4.43;;
64957;SDS011;51486;50.232;19.208;2022-10-16T09:13:08;11.17;;;4.03;;
64957;SDS011;51486;50.232;19.208;2022-10-16T09:15:40;6.07;;;3.40;;
64957;SDS011;51486;50.232;19.208;2022-10-16T09:18:30;12.90;;;4.60;;
64957;SDS011;51486;50.232;19.208;2022-10-16T09:20:55;6.00;;;3.40;;
64957;SDS011;51486;50.232;19.208;2022-10-16T09:23:26;5.47;;;3.17;;
64957;SDS011;51486;50.232;19.208;2022-10-16T09:25:53;6.20;;;3.37;;
64957;SDS011;51486;50.232;19.208;2022-10-16T09:28:20;9.97;;;3.73;;
64957;SDS011;51486;50.232;19.208;2022-10-16T09:30:45;6.53;;;3.60;;
64957;SDS011;51486;50.232;19.208;2022-10-16T09:33:13;5.47;;;3.50;;
64957;SDS011;51486;50.232;19.208;2022-10-16T09:35:40;7.17;;;3.53;;
64957;SDS011;51486;50.232;19.208;2022-10-16T09:38:06;5.07;;;2.87;;
64957;SDS011;51486;50.232;19.208;2022-10-16T09:40:33;7.67;;;4.10;;
64957;SDS011;51486;50.232;19.208;2022-10-16T09:45:36;7.07;;;3.53;;
64957;SDS011;51486;50.232;19.208;2022-10-16T09:48:10;8.10;;;3.57;;
64957;SDS011;51486;50.232;19.208;2022-10-16T09:50:36;11.63;;;4.33;;
64957;SDS011;51486;50.232;19.208;2022-10-16T09:55:30;5.13;;;3.27;;
64957;SDS011;51486;50.232;19.208;2022-10-16T09:57:56;7.80;;;3.33;;
64957;SDS011;51486;50.232;19.208;2022-10-16T10:00:22;5.45;;;3.42;;
64957;SDS011;51486;50.232;19.208;2022-10-16T10:02:48;8.98;;;3.90;;
64957;SDS011;51486;50.232;19.208;2022-10-16T10:05:18;10.18;;;3.28;;
64957;SDS011;51486;50.232;19.208;2022-10-16T10:07:44;8.40;;;3.50;;
64957;SDS011;51486;50.232;19.208;2022-10-16T10:10:27;7.30;;;3.90;;
64957;SDS011;51486;50.232;19.208;2022-10-16T10:12:53;6.07;;;2.80;;
64957;SDS011;51486;50.232;19.208;2022-10-16T10:15:20;5.20;;;2.70;;
64957;SDS011;51486;50.232;19.208;2022-10-16T10:17:51;8.18;;;3.20;;
64957;SDS011;51486;50.232;19.208;2022-10-16T10:20:27;5.53;;;3.28;;
64957;SDS011;51486;50.232;19.208;2022-10-16T10:22:53;6.22;;;2.83;;
64957;SDS011;51486;50.232;19.208;2022-10-16T10:25:26;4.63;;;2.63;;
64957;SDS011;51486;50.232;19.208;2022-10-16T10:35:45;6.47;;;3.03;;
64957;SDS011;51486;50.232;19.208;2022-10-16T10:46:00;6.13;;;2.97;;
64957;SDS011;51486;50.232;19.208;2022-10-16T10:48:33;5.40;;;2.33;;
64957;SDS011;51486;50.232;19.208;2022-10-16T10:51:04;6.60;;;2.33;;
64957;SDS011;51486;50.232;19.208;2022-10-16T10:56:37;5.33;;;2.30;;
64957;SDS011;51486;50.232;19.208;2022-10-16T10:59:16;4.57;;;2.80;;
64957;SDS011;51486;50.232;19.208;2022-10-16T11:01:51;3.63;;;2.50;;
64957;SDS011;51486;50.232;19.208;2022-10-16T11:07:11;4.83;;;2.87;;
64957;SDS011;51486;50.232;19.208;2022-10-16T11:09:41;6.03;;;3.47;;
64957;SDS011;51486;50.232;19.208;2022-10-16T11:12:11;6.53;;;2.93;;
64957;SDS011;51486;50.232;19.208;2022-10-16T11:14:46;6.33;;;3.33;;
64957;SDS011;51486;50.232;19.208;2022-10-16T11:17:14;4.03;;;2.37;;
64957;SDS011;51486;50.232;19.208;2022-10-16T11:22:25;4.40;;;2.77;;
64957;SDS011;51486;50.232;19.208;2022-10-16T11:25:02;5.83;;;2.93;;
64957;SDS011;51486;50.232;19.208;2022-10-16T11:27:37;6.87;;;2.70;;
64957;SDS011;51486;50.232;19.208;2022-10-16T11:30:04;5.53;;;2.57;;
64957;SDS011;51486;50.232;19.208;2022-10-16T11:33:21;8.67;;;3.47;;
64957;SDS011;51486;50.232;19.208;2022-10-16T11:35:46;3.87;;;2.70;;
64957;SDS011;51486;50.232;19.208;2022-10-16T11:38:11;4.27;;;2.20;;
64957;SDS011;51486;50.232;19.208;2022-10-16T11:40:38;4.80;;;2.47;;
64957;SDS011;51486;50.232;19.208;2022-10-16T11:43:14;32.30;;;3.53;;
64957;SDS011;51486;50.232;19.208;2022-10-16T11:45:46;4.93;;;3.07;;
64957;SDS011;51486;50.232;19.208;2022-10-16T11:48:33;5.00;;;2.60;;
64957;SDS011;51486;50.232;19.208;2022-10-16T11:51:14;10.13;;;2.53;;
64957;SDS011;51486;50.232;19.208;2022-10-16T11:53:44;4.47;;;2.30;;
64957;SDS011;51486;50.232;19.208;2022-10-16T11:56:17;5.13;;;2.63;;
64957;SDS011;51486;50.232;19.208;2022-10-16T12:01:31;5.33;;;3.00;;
64957;SDS011;51486;50.232;19.208;2022-10-16T12:08:50;4.53;;;2.20;;
64957;SDS011;51486;50.232;19.208;2022-10-16T12:11:24;4.90;;;2.35;;
64957;SDS011;51486;50.232;19.208;2022-10-16T12:14:05;4.13;;;2.67;;
64957;SDS011;51486;50.232;19.208;2022-10-16T12:16:32;3.10;;;2.10;;
64957;SDS011;51486;50.232;19.208;2022-10-16T12:19:10;3.92;;;2.70;;
64957;SDS011;51486;50.232;19.208;2022-10-16T12:21:36;5.97;;;2.72;;
64957;SDS011;51486;50.232;19.208;2022-10-16T12:24:02;4.75;;;2.38;;
64957;SDS011;51486;50.232;19.208;2022-10-16T12:26:37;5.65;;;2.40;;
64957;SDS011;51486;50.232;19.208;2022-10-16T12:29:12;4.85;;;2.65;;
64957;SDS011;51486;50.232;19.208;2022-10-16T12:31:42;3.53;;;2.05;;
64957;SDS011;51486;50.232;19.208;2022-10-16T12:37:08;8.27;;;3.35;;
64957;SDS011;51486;50.232;19.208;2022-10-16T12:39:34;3.78;;;2.40;;
64957;SDS011;51486;50.232;19.208;2022-10-16T12:42:04;9.77;;;2.47;;
64957;SDS011;51486;50.232;19.208;2022-10-16T12:44:36;5.32;;;2.63;;
64957;SDS011;51486;50.232;19.208;2022-10-16T12:47:02;4.88;;;2.80;;
64957;SDS011;51486;50.232;19.208;2022-10-16T12:51:53;7.40;;;2.83;;
64957;SDS011;51486;50.232;19.208;2022-10-16T12:54:20;4.70;;;2.70;;
64957;SDS011;51486;50.232;19.208;2022-10-16T13:06:52;5.13;;;3.40;;
64957;SDS011;51486;50.232;19.208;2022-10-16T13:09:24;6.13;;;3.27;;
64957;SDS011;51486;50.232;19.208;2022-10-16T13:12:13;5.20;;;3.00;;
64957;SDS011;51486;50.232;19.208;2022-10-16T13:17:35;8.07;;;3.20;;
64957;SDS011;51486;50.232;19.208;2022-10-16T13:20:11;6.17;;;2.80;;
64957;SDS011;51486;50.232;19.208;2022-10-16T13:28:00;7.70;;;3.17;;
64957;SDS011;51486;50.232;19.208;2022-10-16T13:30:26;6.70;;;3.00;;
64957;SDS011;51486;50.232;19.208;2022-10-16T13:33:04;4.63;;;2.53;;
64957;SDS011;51486;50.232;19.208;2022-10-16T13:35:32;4.87;;;3.00;;
64957;SDS011;51486;50.232;19.208;2022-10-16T13:40:29;5.23;;;2.90;;
64957;SDS011;51486;50.232;19.208;2022-10-16T13:42:54;7.27;;;3.03;;
64957;SDS011;51486;50.232;19.208;2022-10-16T13:45:22;4.93;;;2.90;;
64957;SDS011;51486;50.232;19.208;2022-10-16T13:47:48;5.73;;;3.20;;
64957;SDS011;51486;50.232;19.208;2022-10-16T13:50:15;6.03;;;2.93;;
64957;SDS011;51486;50.232;19.208;2022-10-16T13:52:41;4.87;;;3.07;;
64957;SDS011;51486;50.232;19.208;2022-10-16T13:55:14;6.33;;;3.63;;
64957;SDS011;51486;50.232;19.208;2022-10-16T13:57:41;5.73;;;3.10;;
64957;SDS011;51486;50.232;19.208;2022-10-16T14:00:22;6.43;;;3.37;;
64957;SDS011;51486;50.232;19.208;2022-10-16T14:03:03;13.37;;;3.80;;
64957;SDS011;51486;50.232;19.208;2022-10-16T14:05:29;4.73;;;2.97;;
64957;SDS011;51486;50.232;19.208;2022-10-16T14:07:55;5.13;;;3.27;;
64957;SDS011;51486;50.232;19.208;2022-10-16T14:10:25;8.23;;;3.23;;
64957;SDS011;51486;50.232;19.208;2022-10-16T14:12:55;8.63;;;2.93;;
64957;SDS011;51486;50.232;19.208;2022-10-16T14:15:21;4.30;;;3.10;;
64957;SDS011;51486;50.232;19.208;2022-10-16T14:17:48;5.13;;;2.80;;
64957;SDS011;51486;50.232;19.208;2022-10-16T14:20:14;4.87;;;3.20;;
64957;SDS011;51486;50.232;19.208;2022-10-16T14:22:41;5.97;;;3.33;;
64957;SDS011;51486;50.232;19.208;2022-10-16T14:27:42;6.70;;;3.30;;
64957;SDS011;51486;50.232;19.208;2022-10-16T14:32:32;7.70;;;3.30;;
64957;SDS011;51486;50.232;19.208;2022-10-16T14:34:58;5.87;;;3.27;;
64957;SDS011;51486;50.232;19.208;2022-10-16T14:37:27;6.10;;;3.00;;
64957;SDS011;51486;50.232;19.208;2022-10-16T14:39:53;13.43;;;3.50;;
64957;SDS011;51486;50.232;19.208;2022-10-16T14:42:20;5.33;;;3.07;;
64957;SDS011;51486;50.232;19.208;2022-10-16T14:44:48;5.73;;;3.53;;
64957;SDS011;51486;50.232;19.208;2022-10-16T14:47:17;6.13;;;3.53;;
64957;SDS011;51486;50.232;19.208;2022-10-16T14:49:49;4.43;;;3.30;;
64957;SDS011;51486;50.232;19.208;2022-10-16T14:52:14;8.63;;;4.37;;
64957;SDS011;51486;50.232;19.208;2022-10-16T14:54:40;9.10;;;3.90;;
64957;SDS011;51486;50.232;19.208;2022-10-16T14:57:13;7.03;;;3.90;;
64957;SDS011;51486;50.232;19.208;2022-10-16T14:59:41;7.63;;;3.70;;
64957;SDS011;51486;50.232;19.208;2022-10-16T15:04:54;11.13;;;3.90;;
64957;SDS011;51486;50.232;19.208;2022-10-16T15:07:20;8.97;;;4.20;;
64957;SDS011;51486;50.232;19.208;2022-10-16T15:09:45;5.83;;;3.50;;
64957;SDS011;51486;50.232;19.208;2022-10-16T15:12:11;13.80;;;5.03;;
64957;SDS011;51486;50.232;19.208;2022-10-16T15:14:37;8.47;;;4.07;;
64957;SDS011;51486;50.232;19.208;2022-10-16T15:17:02;7.63;;;4.20;;
64957;SDS011;51486;50.232;19.208;2022-10-16T15:19:28;7.30;;;3.37;;
64957;SDS011;51486;50.232;19.208;2022-10-16T15:21:58;6.03;;;3.80;;
64957;SDS011;51486;50.232;19.208;2022-10-16T15:24:25;12.63;;;4.47;;
64957;SDS011;51486;50.232;19.208;2022-10-16T15:26:50;9.30;;;4.10;;
64957;SDS011;51486;50.232;19.208;2022-10-16T15:29:16;12.17;;;5.30;;
64957;SDS011;51486;50.232;19.208;2022-10-16T15:31:41;19.23;;;5.20;;
64957;SDS011;51486;50.232;19.208;2022-10-16T15:34:13;11.47;;;4.97;;
64957;SDS011;51486;50.232;19.208;2022-10-16T15:36:38;12.63;;;6.23;;
64957;SDS011;51486;50.232;19.208;2022-10-16T15:39:04;13.90;;;6.17;;
64957;SDS011;51486;50.232;19.208;2022-10-16T15:41:30;9.67;;;5.10;;
64957;SDS011;51486;50.232;19.208;2022-10-16T15:43:55;12.90;;;5.03;;
64957;SDS011;51486;50.232;19.208;2022-10-16T15:46:22;10.53;;;5.97;;
64957;SDS011;51486;50.232;19.208;2022-10-16T15:48:48;16.10;;;6.87;;
64957;SDS011;51486;50.232;19.208;2022-10-16T15:51:14;16.80;;;5.83;;
64957;SDS011;51486;50.232;19.208;2022-10-16T15:53:39;13.73;;;6.10;;
64957;SDS011;51486;50.232;19.208;2022-10-16T15:56:07;19.40;;;9.50;;
64957;SDS011;51486;50.232;19.208;2022-10-16T15:58:33;18.53;;;7.87;;
64957;SDS011;51486;50.232;19.208;2022-10-16T16:01:00;20.03;;;9.80;;
64957;SDS011;51486;50.232;19.208;2022-10-16T16:03:27;16.50;;;8.73;;
64957;SDS011;51486;50.232;19.208;2022-10-16T16:05:53;16.60;;;8.27;;